Quezon City, Philippines
Current Conditions -  °F | °C
As of 3:00 AM on Friday 28 Nov 2014 (Local Time) from RPLL Reporting Station
Overcast Overcast  
Wind Chill: 79°   Ceiling: 10000
Heat Index: 83°   Visibility: 6mi
Dew Point: 79°   Wind: 1mph
Humidity: 100%   Direction: NA
Pressure: 29.83"   Gusts: NA
Location:  14.66°N, 121.07°E
Report Text: RPLL 271900Z VRB01KT 9999 SCT023 OVC100 26/26 Q1010 NOSIG RMK A2983
Loading
Personal Weather Stations






























Interactive Weather Map New forecast layout! Learn more

10-Day Weather Forecast

Advertisements
Track Severe Weather on mobile